GSVT2: Red River, Gainesville, TX

Data processed at Fri Mar 09 2018 23:31


All information presented herein is the property of the government of the United States of America and may be revised or deleted at any time without prior notice.
Dissemination of this information without the expressed written consent of the Public Affairs Office, Tulsa District U.S. Army Corps of Engineers is strictly prohibited.
These data are gathered electronically and, as presented, have not undergone any form of quality control. These data are not guaranteed to be valid or correct.
Go to home page.
Go to station list.

Upstream stations:

Downstream station:
Previous Day
Next Day
Current Day
    
SHEF ID:       GSVT2     Red River near Gainesville, TX
STATION TYPE:  

               PRECIP     STAGE  RIV-FLOW  BAT-LOAD
                   in        ft       cfs      volt
              Ccp-Rev   Ccp-Rev   Ccp-Rev   Ccp-Rev
(US/Central)
03/07 00:00      0.00      7.80      2639     12.57
03/07 01:00      0.00      7.81      2651     12.57
03/07 02:00      0.00      7.81      2651     12.57
03/07 03:00      0.00      7.80      2639     12.57
03/07 04:00      0.00      7.79      2627     12.57
03/07 05:00      0.00      7.78      2615     12.49
03/07 06:00      0.00      7.77      2603     12.49
03/07 07:00      0.00      7.77      2603     12.49
03/07 08:00      0.00      7.77      2603     12.57
03/07 09:00      0.00      7.74      2566     13.37
03/07 10:00      0.00      7.73      2554     13.44
03/07 11:00      0.00      7.73      2554     13.44
03/07 12:00      0.00      7.72      2542     13.53
03/07 13:00      0.00      7.69      2506     13.60
03/07 14:00      0.00      7.68      2494     13.53
03/07 15:00      0.00      7.66      2470     13.37
03/07 16:00      0.00      7.65      2458     13.37
03/07 17:00      0.00      7.62      2422     13.37
03/07 18:00      0.00      7.60      2398     13.37
03/07 19:00      0.00      7.59      2386     13.13
03/07 20:00      0.00     49.11      ----     12.81
03/07 21:00      0.00      7.52      2303     12.65
03/07 22:00      0.00      7.53      2315     12.65
03/07 23:00      0.00      7.51      2291     12.57